createdAt,value
2023-05-10T00:03:05.995Z,15.09
2023-05-10T00:08:08.521Z,15.19
2023-05-10T00:13:10.667Z,14.99
2023-05-10T00:18:12.972Z,15.24
2023-05-10T00:23:15.630Z,14.95
2023-05-10T00:28:17.912Z,14.87
2023-05-10T00:33:20.166Z,15.06
2023-05-10T00:38:22.322Z,15.00
2023-05-10T00:43:24.547Z,15.27
2023-05-10T00:48:27.089Z,15.04
2023-05-10T00:53:29.866Z,15.07
2023-05-10T00:58:32.213Z,15.17
2023-05-10T01:03:34.757Z,15.19
2023-05-10T01:08:38.028Z,14.91
2023-05-10T01:13:43.622Z,14.60
2023-05-10T01:18:46.323Z,14.65
2023-05-10T01:24:36.555Z,14.88
2023-05-10T01:30:13.582Z,14.72
2023-05-10T01:35:38.678Z,15.01
2023-05-10T01:41:09.828Z,14.83
2023-05-10T01:46:30.121Z,14.55
2023-05-10T01:51:47.262Z,14.61
2023-05-10T01:57:00.638Z,14.91
2023-05-10T02:02:04.224Z,14.93
2023-05-10T02:07:08.094Z,14.81
2023-05-10T02:12:11.301Z,14.82
2023-05-10T02:17:14.342Z,14.92
2023-05-10T02:22:18.365Z,14.90
2023-05-10T02:27:21.659Z,14.73
2023-05-10T02:32:26.406Z,14.62
2023-05-10T02:37:28.774Z,14.66
2023-05-10T02:42:34.568Z,14.69
2023-05-10T02:47:37.050Z,14.76
2023-05-10T02:52:49.317Z,14.60
2023-05-10T02:58:01.279Z,14.58
2023-05-10T03:03:04.057Z,14.74
2023-05-10T03:08:07.319Z,14.61
2023-05-10T03:13:30.848Z,14.78
2023-05-10T03:18:49.580Z,14.82
2023-05-10T03:24:14.022Z,14.68
2023-05-10T03:29:17.449Z,14.51
2023-05-10T03:34:25.838Z,14.55
2023-05-10T03:39:28.507Z,14.88
2023-05-10T03:44:34.492Z,14.54
2023-05-10T03:49:36.670Z,14.47
2023-05-10T03:54:39.638Z,14.36
2023-05-10T03:59:41.927Z,14.14
2023-05-10T04:04:44.195Z,14.04
2023-05-10T04:09:47.738Z,14.04
2023-05-10T04:14:50.243Z,14.36
2023-05-10T04:19:55.449Z,14.46
2023-05-10T04:24:57.611Z,14.53
2023-05-10T04:29:59.949Z,13.90
2023-05-10T04:35:04.607Z,14.17
2023-05-10T04:40:07.873Z,13.80
2023-05-10T04:45:11.150Z,14.26
2023-05-10T04:50:13.544Z,14.27
2023-05-10T04:55:16.064Z,13.79
2023-05-10T05:00:18.800Z,14.26
2023-05-10T05:05:21.108Z,13.99
2023-05-10T05:10:23.366Z,14.14
2023-05-10T05:15:25.544Z,13.97
2023-05-10T05:20:27.688Z,13.87
2023-05-10T05:25:30.129Z,14.17
2023-05-10T05:30:32.655Z,13.68
2023-05-10T05:35:35.154Z,13.83
2023-05-10T05:40:37.499Z,13.55
2023-05-10T05:45:39.851Z,14.20
2023-05-10T05:50:41.971Z,14.24
2023-05-10T05:55:58.817Z,14.17
2023-05-10T06:01:01.023Z,13.93
2023-05-10T06:06:03.354Z,14.37
2023-05-10T06:11:05.554Z,14.36
2023-05-10T06:16:08.304Z,14.41
2023-05-10T06:21:10.606Z,14.76
2023-05-10T06:26:13.111Z,14.91
2023-05-10T06:31:15.407Z,14.87
2023-05-10T06:36:17.752Z,15.02
2023-05-10T06:41:19.983Z,14.88
2023-05-10T06:46:22.275Z,14.78
2023-05-10T06:51:24.544Z,14.92
2023-05-10T06:56:27.130Z,15.19
2023-05-10T07:01:29.458Z,16.32
2023-05-10T07:06:33.782Z,16.58
2023-05-10T07:11:37.322Z,16.61
2023-05-10T07:16:39.655Z,16.11
2023-05-10T07:21:44.299Z,16.06
2023-05-10T07:26:46.649Z,16.38
2023-05-10T07:31:48.910Z,16.94
2023-05-10T07:36:51.283Z,16.50
2023-05-10T07:41:53.553Z,16.36
2023-05-10T07:46:56.790Z,16.50
2023-05-10T07:51:59.042Z,17.06
2023-05-10T07:57:02.195Z,17.42
2023-05-10T08:02:04.548Z,17.28
2023-05-10T08:07:06.871Z,17.19
2023-05-10T08:12:09.006Z,17.10
2023-05-10T08:17:11.180Z,17.15
2023-05-10T08:22:13.778Z,17.14
2023-05-10T08:27:16.167Z,16.89
2023-05-10T08:32:19.237Z,16.82
2023-05-10T08:37:21.498Z,17.59
2023-05-10T08:42:28.682Z,16.92
2023-05-10T08:47:31.209Z,16.41
2023-05-10T08:52:34.911Z,17.25
2023-05-10T08:57:38.107Z,17.38
2023-05-10T09:02:41.324Z,17.31
2023-05-10T09:07:43.849Z,17.57
2023-05-10T09:12:46.848Z,17.20
2023-05-10T09:17:51.137Z,17.70
2023-05-10T09:22:53.406Z,16.78
2023-05-10T09:27:56.607Z,17.49
2023-05-10T09:33:00.897Z,17.66
2023-05-10T09:38:06.002Z,17.77
2023-05-10T09:43:09.510Z,17.94
2023-05-10T09:48:11.807Z,17.27
2023-05-10T09:53:17.792Z,17.46
2023-05-10T09:58:20.130Z,17.26
2023-05-10T10:03:23.708Z,16.68
2023-05-10T10:08:26.825Z,17.84
2023-05-10T10:13:29.143Z,18.24
2023-05-10T10:18:32.723Z,17.90
2023-05-10T10:23:36.308Z,18.22
2023-05-10T10:29:25.060Z,17.71
2023-05-10T10:34:30.460Z,17.81
2023-05-10T10:39:33.515Z,18.55
2023-05-10T10:44:39.349Z,18.57
2023-05-10T10:49:44.612Z,18.81
2023-05-10T10:55:26.041Z,18.65
2023-05-10T11:00:39.473Z,18.54
2023-05-10T11:05:49.954Z,18.38
2023-05-10T11:11:16.050Z,17.90
2023-05-10T11:16:26.548Z,17.31
2023-05-10T11:21:30.311Z,17.74
2023-05-10T11:26:35.801Z,19.09
2023-05-10T11:31:47.919Z,18.81
2023-05-10T11:36:54.976Z,18.68
2023-05-10T11:41:58.346Z,19.21
2023-05-10T11:47:02.452Z,18.87
2023-05-10T11:52:09.552Z,18.23
2023-05-10T11:57:11.674Z,19.57
2023-05-10T12:02:16.229Z,18.02
2023-05-10T12:07:18.958Z,16.67
2023-05-10T12:12:21.324Z,16.11
2023-05-10T12:17:23.547Z,16.33
2023-05-10T12:22:25.963Z,16.47
2023-05-10T12:27:33.930Z,16.65
2023-05-10T12:32:44.841Z,16.57
2023-05-10T12:37:47.023Z,17.00
2023-05-10T12:42:49.846Z,17.17
2023-05-10T12:47:52.082Z,16.75
2023-05-10T12:52:54.340Z,17.27
2023-05-10T12:57:56.490Z,17.46
2023-05-10T13:02:58.782Z,17.58
2023-05-10T13:08:01.219Z,17.39
2023-05-10T13:13:03.894Z,17.78
2023-05-10T13:18:06.373Z,18.15
2023-05-10T13:23:08.683Z,17.44
2023-05-10T13:28:11.023Z,17.18
2023-05-10T13:33:13.311Z,16.94
2023-05-10T13:38:15.624Z,17.20
2023-05-10T13:43:17.976Z,18.09
2023-05-10T13:48:20.157Z,17.67
2023-05-10T13:53:22.828Z,17.45
2023-05-10T13:58:25.110Z,17.89
2023-05-10T14:03:27.488Z,19.21
2023-05-10T14:08:29.886Z,18.79
2023-05-10T14:13:32.436Z,19.74
2023-05-10T14:18:34.779Z,19.40
2023-05-10T14:23:37.137Z,19.63
2023-05-10T14:28:39.500Z,20.43
2023-05-10T14:33:42.334Z,20.16
2023-05-10T14:38:44.466Z,19.03
2023-05-10T14:43:47.118Z,20.00
2023-05-10T14:48:49.221Z,19.89
2023-05-10T14:53:51.605Z,19.74
2023-05-10T14:58:54.010Z,19.47
2023-05-10T15:03:56.871Z,20.06
2023-05-10T15:08:59.636Z,19.61
2023-05-10T15:14:03.053Z,18.19
2023-05-10T15:19:05.437Z,17.70
2023-05-10T15:24:08.096Z,17.85
2023-05-10T15:29:10.561Z,17.93
2023-05-10T15:34:12.873Z,18.76
2023-05-10T15:39:15.054Z,18.64
2023-05-10T15:44:17.711Z,17.91
2023-05-10T15:49:19.869Z,17.21
2023-05-10T15:54:22.950Z,17.73
2023-05-10T15:59:25.253Z,17.42
2023-05-10T16:04:27.516Z,17.39
2023-05-10T16:09:29.874Z,18.22
2023-05-10T16:14:32.310Z,18.38
2023-05-10T16:19:34.572Z,18.10
2023-05-10T16:24:37.064Z,17.57
2023-05-10T16:29:39.299Z,18.13
2023-05-10T16:34:41.460Z,17.77
2023-05-10T16:39:43.928Z,18.37
2023-05-10T16:44:46.150Z,17.70
2023-05-10T16:49:48.476Z,17.79
2023-05-10T16:54:50.598Z,18.05
2023-05-10T16:59:56.341Z,18.04
2023-05-10T17:04:58.598Z,18.04
2023-05-10T17:10:00.918Z,17.73
2023-05-10T17:15:03.463Z,17.44
2023-05-10T17:20:07.378Z,17.86
2023-05-10T17:25:11.997Z,17.68
2023-05-10T17:30:14.833Z,17.40
2023-05-10T17:35:17.422Z,17.15
2023-05-10T17:40:20.173Z,17.16
2023-05-10T17:45:22.749Z,17.49
2023-05-10T17:50:25.100Z,16.86
2023-05-10T17:55:30.063Z,16.78
2023-05-10T18:00:32.598Z,16.19
2023-05-10T18:05:39.483Z,16.16
2023-05-10T18:10:42.010Z,16.16
2023-05-10T18:15:44.434Z,15.81
2023-05-10T18:20:46.633Z,15.51
2023-05-10T18:25:48.959Z,15.29
2023-05-10T18:38:04.718Z,15.16
2023-05-10T18:43:06.873Z,15.26
2023-05-10T18:48:09.090Z,15.17
2023-05-10T18:53:11.373Z,15.00
2023-05-10T18:58:13.657Z,15.26
2023-05-10T19:03:16.053Z,15.35
2023-05-10T19:08:18.662Z,15.80
2023-05-10T19:13:21.282Z,15.34
2023-05-10T19:18:23.523Z,14.81
2023-05-10T19:23:25.856Z,14.87
2023-05-10T19:28:28.418Z,14.76
2023-05-10T19:33:30.792Z,14.99
2023-05-10T19:38:33.375Z,15.27
2023-05-10T19:43:37.456Z,14.80
2023-05-10T19:48:39.617Z,14.69
2023-05-10T19:53:44.930Z,14.73
2023-05-10T19:58:47.439Z,14.31
2023-05-10T20:03:49.749Z,14.59
2023-05-10T20:08:52.071Z,14.60
2023-05-10T20:13:54.357Z,14.76
2023-05-10T20:18:56.518Z,14.43
2023-05-10T20:23:58.653Z,14.37
2023-05-10T20:29:00.804Z,14.32
2023-05-10T20:34:03.030Z,14.51
2023-05-10T20:39:05.475Z,14.00
2023-05-10T20:44:07.687Z,13.90
2023-05-10T20:49:10.148Z,14.04
2023-05-10T20:54:12.309Z,14.15
2023-05-10T20:59:14.459Z,14.17
2023-05-10T21:04:21.851Z,13.91
2023-05-10T21:09:24.497Z,13.83
2023-05-10T21:14:26.824Z,13.91
2023-05-10T21:19:29.086Z,13.92
2023-05-10T21:24:31.458Z,13.81
2023-05-10T21:29:33.755Z,13.88
2023-05-10T21:34:36.096Z,13.66
2023-05-10T21:39:38.787Z,13.61
2023-05-10T21:44:41.049Z,13.68
2023-05-10T21:49:43.541Z,13.80
2023-05-10T21:54:45.874Z,13.89
2023-05-10T21:59:48.035Z,13.70
2023-05-10T22:04:51.295Z,13.65
2023-05-10T22:09:53.642Z,13.40
2023-05-10T22:15:09.406Z,13.63
2023-05-10T22:20:13.260Z,13.62
2023-05-10T22:25:15.678Z,13.83
2023-05-10T22:30:19.916Z,13.53
2023-05-10T22:35:22.545Z,13.52
2023-05-10T22:40:24.837Z,13.32
2023-05-10T22:45:27.694Z,13.54
2023-05-10T22:50:31.007Z,13.49
2023-05-10T22:55:33.447Z,13.44
2023-05-10T23:00:35.830Z,13.35
2023-05-10T23:05:38.030Z,13.48
2023-05-10T23:10:40.254Z,13.67
2023-05-10T23:15:43.718Z,13.70
2023-05-10T23:20:46.010Z,13.61
2023-05-10T23:25:48.454Z,13.39
2023-05-10T23:30:58.726Z,13.26
2023-05-10T23:36:01.045Z,13.12
2023-05-10T23:41:03.566Z,13.46
2023-05-10T23:46:06.683Z,13.48
2023-05-10T23:51:09.021Z,13.07
2023-05-10T23:56:11.910Z,13.08
